sensor_id;sensor_type;location;lat;lon;timestamp;pressure;altitude;pressure_sealevel;temperature;humidity
28004;BME280;15330;51.234;6.754;2022-09-30T00:01:42;100341.38;;;10.10;79.23
28004;BME280;15330;51.234;6.754;2022-09-30T00:04:28;100345.22;;;10.00;79.41
28004;BME280;15330;51.234;6.754;2022-09-30T00:06:53;100340.06;;;9.98;79.31
28004;BME280;15330;51.234;6.754;2022-09-30T00:09:19;100341.28;;;9.71;79.99
28004;BME280;15330;51.234;6.754;2022-09-30T00:11:46;100352.81;;;9.64;80.50
28004;BME280;15330;51.234;6.754;2022-09-30T00:14:16;100358.16;;;9.72;80.04
28004;BME280;15330;51.234;6.754;2022-09-30T00:16:43;100365.84;;;9.75;79.87
28004;BME280;15330;51.234;6.754;2022-09-30T00:19:08;100366.84;;;9.74;79.61
28004;BME280;15330;51.234;6.754;2022-09-30T00:21:34;100372.66;;;9.77;79.57
28004;BME280;15330;51.234;6.754;2022-09-30T00:23:59;100370.84;;;9.70;79.66
28004;BME280;15330;51.234;6.754;2022-09-30T00:26:25;100375.66;;;9.66;79.80
28004;BME280;15330;51.234;6.754;2022-09-30T00:28:55;100377.19;;;9.52;79.68
28004;BME280;15330;51.234;6.754;2022-09-30T00:31:22;100370.50;;;9.48;80.41
28004;BME280;15330;51.234;6.754;2022-09-30T00:33:48;100369.47;;;9.25;81.28
28004;BME280;15330;51.234;6.754;2022-09-30T00:36:50;100373.97;;;9.08;82.30
28004;BME280;15330;51.234;6.754;2022-09-30T00:39:21;100373.44;;;8.97;82.28
28004;BME280;15330;51.234;6.754;2022-09-30T00:41:49;100372.44;;;8.98;82.79
28004;BME280;15330;51.234;6.754;2022-09-30T00:45:09;100368.63;;;9.08;82.67
28004;BME280;15330;51.234;6.754;2022-09-30T00:47:45;100368.16;;;9.13;82.25
28004;BME280;15330;51.234;6.754;2022-09-30T00:50:21;100376.47;;;9.10;82.42
28004;BME280;15330;51.234;6.754;2022-09-30T00:53:20;100368.22;;;8.71;84.25
28004;BME280;15330;51.234;6.754;2022-09-30T00:56:06;100374.41;;;8.71;84.21
28004;BME280;15330;51.234;6.754;2022-09-30T00:58:46;100369.41;;;8.76;84.13
28004;BME280;15330;51.234;6.754;2022-09-30T01:01:14;100369.72;;;8.73;84.69
28004;BME280;15330;51.234;6.754;2022-09-30T01:03:42;100369.00;;;8.63;84.90
28004;BME280;15330;51.234;6.754;2022-09-30T01:06:09;100376.53;;;8.60;85.93
28004;BME280;15330;51.234;6.754;2022-09-30T01:08:37;100359.56;;;8.77;84.53
28004;BME280;15330;51.234;6.754;2022-09-30T01:11:04;100375.28;;;8.46;85.79
28004;BME280;15330;51.234;6.754;2022-09-30T01:13:30;100375.72;;;8.75;84.78
28004;BME280;15330;51.234;6.754;2022-09-30T01:22:32;100393.53;;;8.67;85.65
28004;BME280;15330;51.234;6.754;2022-09-30T01:38:20;100389.13;;;9.00;83.39
28004;BME280;15330;51.234;6.754;2022-09-30T01:41:05;100385.97;;;9.04;83.33
28004;BME280;15330;51.234;6.754;2022-09-30T01:43:43;100389.31;;;9.06;82.93
28004;BME280;15330;51.234;6.754;2022-09-30T01:46:34;100393.25;;;8.78;84.10
28004;BME280;15330;51.234;6.754;2022-09-30T01:49:46;100391.72;;;8.75;84.65
28004;BME280;15330;51.234;6.754;2022-09-30T01:52:18;100392.94;;;8.89;84.35
28004;BME280;15330;51.234;6.754;2022-09-30T02:00:09;100391.75;;;8.83;84.21
28004;BME280;15330;51.234;6.754;2022-09-30T02:02:56;100397.59;;;8.79;84.45
28004;BME280;15330;51.234;6.754;2022-09-30T02:05:31;100396.47;;;8.98;83.78
28004;BME280;15330;51.234;6.754;2022-09-30T02:08:04;100385.63;;;8.91;84.06
28004;BME280;15330;51.234;6.754;2022-09-30T02:10:38;100387.63;;;8.89;84.23
28004;BME280;15330;51.234;6.754;2022-09-30T02:13:13;100392.44;;;8.86;84.55
28004;BME280;15330;51.234;6.754;2022-09-30T02:15:45;100389.78;;;8.94;84.07
28004;BME280;15330;51.234;6.754;2022-09-30T02:18:20;100387.03;;;8.61;85.58
28004;BME280;15330;51.234;6.754;2022-09-30T02:20:48;100388.56;;;8.72;85.45
28004;BME280;15330;51.234;6.754;2022-09-30T02:23:21;100394.66;;;8.56;86.02
28004;BME280;15330;51.234;6.754;2022-09-30T02:26:23;100378.00;;;8.62;85.63
28004;BME280;15330;51.234;6.754;2022-09-30T02:28:56;100385.38;;;8.68;85.58
28004;BME280;15330;51.234;6.754;2022-09-30T02:31:25;100379.38;;;8.32;86.84
28004;BME280;15330;51.234;6.754;2022-09-30T02:33:56;100390.59;;;8.44;86.48
28004;BME280;15330;51.234;6.754;2022-09-30T02:40:01;100392.59;;;8.42;87.21
28004;BME280;15330;51.234;6.754;2022-09-30T02:42:26;100393.56;;;8.41;87.51
28004;BME280;15330;51.234;6.754;2022-09-30T02:44:56;100395.91;;;8.36;87.80
28004;BME280;15330;51.234;6.754;2022-09-30T02:50:50;100397.03;;;8.33;87.74
28004;BME280;15330;51.234;6.754;2022-09-30T02:53:32;100411.31;;;7.98;89.00
28004;BME280;15330;51.234;6.754;2022-09-30T02:56:13;100411.13;;;8.26;88.42
28004;BME280;15330;51.234;6.754;2022-09-30T02:58:42;100410.72;;;8.13;88.80
28004;BME280;15330;51.234;6.754;2022-09-30T03:01:11;100412.59;;;8.20;88.63
28004;BME280;15330;51.234;6.754;2022-09-30T03:03:52;100414.75;;;8.17;88.31
28004;BME280;15330;51.234;6.754;2022-09-30T03:06:19;100418.38;;;7.64;90.94
28004;BME280;15330;51.234;6.754;2022-09-30T03:08:46;100415.00;;;7.62;90.70
28004;BME280;15330;51.234;6.754;2022-09-30T03:11:17;100413.34;;;7.79;89.90
28004;BME280;15330;51.234;6.754;2022-09-30T03:22:08;100419.84;;;7.84;89.23
28004;BME280;15330;51.234;6.754;2022-09-30T03:30:08;100433.88;;;7.51;90.92
28004;BME280;15330;51.234;6.754;2022-09-30T03:35:31;100425.81;;;7.78;89.09
28004;BME280;15330;51.234;6.754;2022-09-30T03:38:10;100428.38;;;7.70;89.22
28004;BME280;15330;51.234;6.754;2022-09-30T03:43:28;100429.41;;;7.51;90.73
28004;BME280;15330;51.234;6.754;2022-09-30T03:46:35;100431.63;;;7.56;90.50
28004;BME280;15330;51.234;6.754;2022-09-30T03:49:02;100437.38;;;7.51;90.91
28004;BME280;15330;51.234;6.754;2022-09-30T03:51:28;100443.41;;;7.53;90.80
28004;BME280;15330;51.234;6.754;2022-09-30T03:53:55;100449.63;;;7.62;90.38
28004;BME280;15330;51.234;6.754;2022-09-30T03:56:28;100443.63;;;7.42;91.38
28004;BME280;15330;51.234;6.754;2022-09-30T03:58:56;100447.13;;;7.25;92.13
28004;BME280;15330;51.234;6.754;2022-09-30T04:01:22;100450.94;;;7.58;91.15
28004;BME280;15330;51.234;6.754;2022-09-30T04:03:52;100440.47;;;7.82;89.82
28004;BME280;15330;51.234;6.754;2022-09-30T04:06:20;100437.16;;;7.45;90.32
28004;BME280;15330;51.234;6.754;2022-09-30T04:08:46;100441.19;;;7.49;91.27
28004;BME280;15330;51.234;6.754;2022-09-30T04:11:11;100447.81;;;7.45;91.01
28004;BME280;15330;51.234;6.754;2022-09-30T04:13:37;100453.34;;;7.69;90.07
28004;BME280;15330;51.234;6.754;2022-09-30T04:16:04;100457.13;;;7.84;89.83
28004;BME280;15330;51.234;6.754;2022-09-30T04:18:29;100460.34;;;7.70;89.41
28004;BME280;15330;51.234;6.754;2022-09-30T04:20:56;100458.81;;;7.85;89.21
28004;BME280;15330;51.234;6.754;2022-09-30T04:23:22;100467.88;;;7.74;88.67
28004;BME280;15330;51.234;6.754;2022-09-30T04:25:52;100465.91;;;7.77;88.45
28004;BME280;15330;51.234;6.754;2022-09-30T04:28:17;100470.69;;;7.73;89.08
28004;BME280;15330;51.234;6.754;2022-09-30T04:30:42;100481.09;;;7.49;89.78
28004;BME280;15330;51.234;6.754;2022-09-30T04:33:08;100478.28;;;7.32;91.02
28004;BME280;15330;51.234;6.754;2022-09-30T04:35:35;100479.41;;;7.48;89.93
28004;BME280;15330;51.234;6.754;2022-09-30T04:38:01;100475.31;;;7.71;89.97
28004;BME280;15330;51.234;6.754;2022-09-30T04:40:26;100476.31;;;7.34;90.54
28004;BME280;15330;51.234;6.754;2022-09-30T04:42:55;100480.94;;;7.32;90.34
28004;BME280;15330;51.234;6.754;2022-09-30T04:45:22;100487.84;;;7.25;90.71
28004;BME280;15330;51.234;6.754;2022-09-30T04:47:48;100476.75;;;7.30;91.05
28004;BME280;15330;51.234;6.754;2022-09-30T04:50:14;100485.78;;;7.19;91.40
28004;BME280;15330;51.234;6.754;2022-09-30T04:52:42;100489.75;;;7.33;90.53
28004;BME280;15330;51.234;6.754;2022-09-30T04:55:08;100487.69;;;7.27;90.73
28004;BME280;15330;51.234;6.754;2022-09-30T04:57:34;100491.38;;;7.44;90.15
28004;BME280;15330;51.234;6.754;2022-09-30T05:00:00;100495.91;;;7.16;90.72
28004;BME280;15330;51.234;6.754;2022-09-30T05:02:25;100494.09;;;7.34;90.44
28004;BME280;15330;51.234;6.754;2022-09-30T05:04:51;100499.13;;;7.72;90.96
28004;BME280;15330;51.234;6.754;2022-09-30T05:07:16;100498.31;;;7.27;90.77
28004;BME280;15330;51.234;6.754;2022-09-30T05:09:42;100507.47;;;7.42;90.46
28004;BME280;15330;51.234;6.754;2022-09-30T05:12:07;100493.88;;;7.45;89.97
28004;BME280;15330;51.234;6.754;2022-09-30T05:14:32;100509.84;;;7.45;89.69
28004;BME280;15330;51.234;6.754;2022-09-30T05:16:58;100505.25;;;7.20;90.78
28004;BME280;15330;51.234;6.754;2022-09-30T05:19:24;100512.53;;;7.18;90.55
28004;BME280;15330;51.234;6.754;2022-09-30T05:21:49;100516.03;;;7.18;91.25
28004;BME280;15330;51.234;6.754;2022-09-30T05:24:16;100520.91;;;7.23;91.03
28004;BME280;15330;51.234;6.754;2022-09-30T05:26:42;100527.03;;;7.06;90.90
28004;BME280;15330;51.234;6.754;2022-09-30T05:29:08;100524.25;;;7.25;90.48
28004;BME280;15330;51.234;6.754;2022-09-30T05:31:34;100531.84;;;7.20;90.27
28004;BME280;15330;51.234;6.754;2022-09-30T05:33:59;100529.09;;;7.12;90.79
28004;BME280;15330;51.234;6.754;2022-09-30T05:36:25;100540.72;;;7.11;91.26
28004;BME280;15330;51.234;6.754;2022-09-30T05:38:52;100542.06;;;7.24;90.37
28004;BME280;15330;51.234;6.754;2022-09-30T05:41:18;100552.94;;;7.49;90.14
28004;BME280;15330;51.234;6.754;2022-09-30T05:43:45;100555.09;;;7.45;88.92
28004;BME280;15330;51.234;6.754;2022-09-30T05:46:15;100560.16;;;7.38;89.29
28004;BME280;15330;51.234;6.754;2022-09-30T05:48:40;100552.66;;;7.69;88.51
28004;BME280;15330;51.234;6.754;2022-09-30T05:51:06;100559.22;;;7.75;88.35
28004;BME280;15330;51.234;6.754;2022-09-30T05:53:33;100567.66;;;7.53;88.67
28004;BME280;15330;51.234;6.754;2022-09-30T05:56:02;100571.50;;;7.41;90.22
28004;BME280;15330;51.234;6.754;2022-09-30T05:58:28;100568.38;;;8.08;86.85
28004;BME280;15330;51.234;6.754;2022-09-30T06:00:53;100563.88;;;8.08;86.27
28004;BME280;15330;51.234;6.754;2022-09-30T06:03:19;100562.19;;;7.54;88.81
28004;BME280;15330;51.234;6.754;2022-09-30T06:05:44;100571.44;;;7.50;89.56
28004;BME280;15330;51.234;6.754;2022-09-30T06:08:11;100580.03;;;8.07;87.42
28004;BME280;15330;51.234;6.754;2022-09-30T06:10:42;100580.78;;;8.35;85.48
28004;BME280;15330;51.234;6.754;2022-09-30T06:13:08;100578.63;;;8.82;83.85
28004;BME280;15330;51.234;6.754;2022-09-30T06:15:34;100581.00;;;9.69;80.00
28004;BME280;15330;51.234;6.754;2022-09-30T06:18:03;100575.56;;;10.52;78.64
28004;BME280;15330;51.234;6.754;2022-09-30T06:20:28;100569.22;;;9.96;78.28
28004;BME280;15330;51.234;6.754;2022-09-30T06:22:54;100583.88;;;9.84;78.08
28004;BME280;15330;51.234;6.754;2022-09-30T06:25:22;100584.94;;;10.32;76.88
28004;BME280;15330;51.234;6.754;2022-09-30T06:27:47;100588.28;;;10.42;75.86
28004;BME280;15330;51.234;6.754;2022-09-30T06:30:13;100592.34;;;11.17;74.28
28004;BME280;15330;51.234;6.754;2022-09-30T06:32:38;100594.78;;;11.35;72.87
28004;BME280;15330;51.234;6.754;2022-09-30T06:35:04;100602.78;;;11.43;71.58
28004;BME280;15330;51.234;6.754;2022-09-30T06:37:30;100597.63;;;10.29;75.13
28004;BME280;15330;51.234;6.754;2022-09-30T06:39:55;100614.44;;;11.11;72.65
28004;BME280;15330;51.234;6.754;2022-09-30T06:42:20;100625.09;;;13.26;67.89
28004;BME280;15330;51.234;6.754;2022-09-30T06:44:48;100625.53;;;11.47;71.30
28004;BME280;15330;51.234;6.754;2022-09-30T06:47:13;100623.53;;;10.70;74.36
28004;BME280;15330;51.234;6.754;2022-09-30T06:49:39;100620.69;;;13.69;65.80
28004;BME280;15330;51.234;6.754;2022-09-30T06:52:08;100628.34;;;12.99;65.39
28004;BME280;15330;51.234;6.754;2022-09-30T06:54:34;100632.00;;;13.79;65.23
28004;BME280;15330;51.234;6.754;2022-09-30T06:56:59;100635.69;;;13.78;64.54
28004;BME280;15330;51.234;6.754;2022-09-30T06:59:26;100640.19;;;13.56;64.72
28004;BME280;15330;51.234;6.754;2022-09-30T07:01:51;100633.41;;;12.79;67.62
28004;BME280;15330;51.234;6.754;2022-09-30T07:04:17;100634.03;;;14.77;61.44
28004;BME280;15330;51.234;6.754;2022-09-30T07:06:43;100638.38;;;12.67;66.83
28004;BME280;15330;51.234;6.754;2022-09-30T07:09:09;100644.50;;;13.72;64.29
28004;BME280;15330;51.234;6.754;2022-09-30T07:11:35;100644.56;;;11.99;67.82
28004;BME280;15330;51.234;6.754;2022-09-30T07:14:05;100642.75;;;12.23;66.51
28004;BME280;15330;51.234;6.754;2022-09-30T07:16:30;100637.03;;;13.38;63.41
28004;BME280;15330;51.234;6.754;2022-09-30T07:18:56;100638.69;;;13.54;64.41
28004;BME280;15330;51.234;6.754;2022-09-30T07:21:23;100642.59;;;12.84;66.73
28004;BME280;15330;51.234;6.754;2022-09-30T07:23:48;100651.06;;;12.96;65.46
28004;BME280;15330;51.234;6.754;2022-09-30T07:26:18;100643.03;;;14.06;62.63
28004;BME280;15330;51.234;6.754;2022-09-30T07:28:44;100651.88;;;12.36;66.95
28004;BME280;15330;51.234;6.754;2022-09-30T07:31:12;100651.84;;;13.34;64.25
28004;BME280;15330;51.234;6.754;2022-09-30T07:33:39;100654.22;;;13.88;62.95
28004;BME280;15330;51.234;6.754;2022-09-30T07:36:06;100647.66;;;14.48;60.38
28004;BME280;15330;51.234;6.754;2022-09-30T07:38:34;100643.06;;;14.27;61.75
28004;BME280;15330;51.234;6.754;2022-09-30T07:41:06;100645.97;;;14.68;60.13
28004;BME280;15330;51.234;6.754;2022-09-30T07:43:33;100650.13;;;15.26;59.18
28004;BME280;15330;51.234;6.754;2022-09-30T07:46:09;100656.09;;;15.84;56.61
28004;BME280;15330;51.234;6.754;2022-09-30T07:48:36;100657.94;;;15.77;56.01
28004;BME280;15330;51.234;6.754;2022-09-30T07:51:05;100649.75;;;15.29;57.49
28004;BME280;15330;51.234;6.754;2022-09-30T07:53:30;100644.44;;;16.38;54.26
28004;BME280;15330;51.234;6.754;2022-09-30T07:55:56;100644.06;;;17.07;52.82
28004;BME280;15330;51.234;6.754;2022-09-30T07:58:26;100652.56;;;16.64;54.51
28004;BME280;15330;51.234;6.754;2022-09-30T08:00:51;100651.75;;;17.23;53.06
28004;BME280;15330;51.234;6.754;2022-09-30T08:03:16;100658.09;;;15.69;55.14
28004;BME280;15330;51.234;6.754;2022-09-30T08:05:42;100651.34;;;16.86;53.84
28004;BME280;15330;51.234;6.754;2022-09-30T08:08:13;100656.28;;;17.42;51.91
28004;BME280;15330;51.234;6.754;2022-09-30T08:10:39;100661.72;;;16.63;52.88
28004;BME280;15330;51.234;6.754;2022-09-30T08:13:05;100661.19;;;15.66;56.81
28004;BME280;15330;51.234;6.754;2022-09-30T08:15:31;100656.34;;;16.76;52.92
28004;BME280;15330;51.234;6.754;2022-09-30T08:17:56;100661.00;;;15.67;55.13
28004;BME280;15330;51.234;6.754;2022-09-30T08:20:21;100651.13;;;14.63;57.02
28004;BME280;15330;51.234;6.754;2022-09-30T08:22:51;100652.88;;;15.33;57.39
28004;BME280;15330;51.234;6.754;2022-09-30T08:25:16;100651.69;;;17.49;51.94
28004;BME280;15330;51.234;6.754;2022-09-30T08:27:42;100652.56;;;17.04;53.01
28004;BME280;15330;51.234;6.754;2022-09-30T08:30:08;100653.09;;;17.65;49.63
28004;BME280;15330;51.234;6.754;2022-09-30T08:32:33;100648.44;;;17.01;51.49
28004;BME280;15330;51.234;6.754;2022-09-30T08:34:59;100648.09;;;17.62;50.10
28004;BME280;15330;51.234;6.754;2022-09-30T08:37:24;100642.63;;;18.26;49.40
28004;BME280;15330;51.234;6.754;2022-09-30T08:39:49;100646.59;;;18.24;49.40
28004;BME280;15330;51.234;6.754;2022-09-30T08:45:35;100654.84;;;17.97;49.25
28004;BME280;15330;51.234;6.754;2022-09-30T08:48:25;100656.97;;;17.89;49.10
28004;BME280;15330;51.234;6.754;2022-09-30T08:53:49;100657.91;;;19.70;46.55
28004;BME280;15330;51.234;6.754;2022-09-30T08:56:23;100663.47;;;19.32;46.39
28004;BME280;15330;51.234;6.754;2022-09-30T08:58:51;100667.47;;;19.91;44.77
28004;BME280;15330;51.234;6.754;2022-09-30T09:03:48;100658.88;;;18.26;48.97
28004;BME280;15330;51.234;6.754;2022-09-30T09:06:20;100661.88;;;19.67;45.12
28004;BME280;15330;51.234;6.754;2022-09-30T09:19:33;100668.06;;;24.22;35.95
28004;BME280;15330;51.234;6.754;2022-09-30T09:22:01;100660.44;;;25.14;33.61
28004;BME280;15330;51.234;6.754;2022-09-30T09:24:49;100651.34;;;23.53;36.20
28004;BME280;15330;51.234;6.754;2022-09-30T09:27:23;100661.69;;;24.97;34.78
28004;BME280;15330;51.234;6.754;2022-09-30T09:30:08;100647.66;;;24.29;35.26
28004;BME280;15330;51.234;6.754;2022-09-30T09:32:35;100650.72;;;26.89;31.66
28004;BME280;15330;51.234;6.754;2022-09-30T09:35:19;100649.56;;;24.61;34.43
28004;BME280;15330;51.234;6.754;2022-09-30T09:40:46;100650.03;;;26.21;32.35
28004;BME280;15330;51.234;6.754;2022-09-30T09:48:45;100630.09;;;29.90;28.12
28004;BME280;15330;51.234;6.754;2022-09-30T09:51:18;100644.44;;;25.33;33.16
28004;BME280;15330;51.234;6.754;2022-09-30T09:53:53;100650.13;;;26.56;31.07
28004;BME280;15330;51.234;6.754;2022-09-30T09:56:26;100643.84;;;26.96;31.38
28004;BME280;15330;51.234;6.754;2022-09-30T09:59:12;100647.66;;;28.10;30.01
28004;BME280;15330;51.234;6.754;2022-09-30T10:01:44;100646.84;;;29.99;27.32
28004;BME280;15330;51.234;6.754;2022-09-30T10:04:14;100650.31;;;26.19;32.22
28004;BME280;15330;51.234;6.754;2022-09-30T10:06:55;100646.03;;;25.29;33.10
28004;BME280;15330;51.234;6.754;2022-09-30T10:09:35;100643.50;;;27.59;30.54
28004;BME280;15330;51.234;6.754;2022-09-30T10:14:30;100641.63;;;26.63;30.76
28004;BME280;15330;51.234;6.754;2022-09-30T10:17:04;100630.09;;;26.61;31.52
28004;BME280;15330;51.234;6.754;2022-09-30T10:19:32;100625.44;;;26.61;31.97
28004;BME280;15330;51.234;6.754;2022-09-30T10:24:33;100637.50;;;28.55;30.11
28004;BME280;15330;51.234;6.754;2022-09-30T10:26:59;100633.53;;;29.58;28.00
28004;BME280;15330;51.234;6.754;2022-09-30T10:29:28;100636.81;;;28.68;28.60
28004;BME280;15330;51.234;6.754;2022-09-30T10:31:57;100622.09;;;29.46;28.18
28004;BME280;15330;51.234;6.754;2022-09-30T10:36:54;100628.75;;;26.94;30.93
28004;BME280;15330;51.234;6.754;2022-09-30T10:39:34;100623.53;;;26.62;31.23
28004;BME280;15330;51.234;6.754;2022-09-30T10:42:21;100630.34;;;29.70;27.01
28004;BME280;15330;51.234;6.754;2022-09-30T10:45:15;100633.38;;;27.24;31.19
28004;BME280;15330;51.234;6.754;2022-09-30T10:47:45;100633.84;;;27.66;30.02
28004;BME280;15330;51.234;6.754;2022-09-30T10:50:13;100641.38;;;28.49;29.14
28004;BME280;15330;51.234;6.754;2022-09-30T10:53:10;100631.72;;;29.19;27.95
28004;BME280;15330;51.234;6.754;2022-09-30T10:55:43;100631.13;;;27.41;30.32
28004;BME280;15330;51.234;6.754;2022-09-30T11:01:11;100627.63;;;27.15;30.37
28004;BME280;15330;51.234;6.754;2022-09-30T11:06:35;100639.44;;;26.55;31.53
28004;BME280;15330;51.234;6.754;2022-09-30T11:09:19;100646.69;;;21.21;40.78
28004;BME280;15330;51.234;6.754;2022-09-30T11:12:02;100637.97;;;26.22;32.43
28004;BME280;15330;51.234;6.754;2022-09-30T11:14:43;100638.34;;;26.86;31.83
28004;BME280;15330;51.234;6.754;2022-09-30T11:17:26;100636.81;;;27.75;30.19
28004;BME280;15330;51.234;6.754;2022-09-30T11:20:02;100649.41;;;21.96;39.59
28004;BME280;15330;51.234;6.754;2022-09-30T11:22:40;100644.91;;;21.03;41.81
28004;BME280;15330;51.234;6.754;2022-09-30T11:25:13;100644.75;;;19.05;47.04
28004;BME280;15330;51.234;6.754;2022-09-30T11:30:18;100655.50;;;19.19;47.90
28004;BME280;15330;51.234;6.754;2022-09-30T11:40:36;100650.84;;;19.44;45.86
28004;BME280;15330;51.234;6.754;2022-09-30T11:43:30;100640.31;;;19.91;44.66
28004;BME280;15330;51.234;6.754;2022-09-30T11:48:55;100634.06;;;19.54;45.68
28004;BME280;15330;51.234;6.754;2022-09-30T11:51:39;100636.28;;;18.39;47.59
28004;BME280;15330;51.234;6.754;2022-09-30T11:56:36;100625.38;;;19.63;44.63
28004;BME280;15330;51.234;6.754;2022-09-30T11:59:53;100612.84;;;19.44;44.56
28004;BME280;15330;51.234;6.754;2022-09-30T12:01:53;100614.44;;;19.88;44.90
28004;BME280;15330;51.234;6.754;2022-09-30T12:04:29;100606.28;;;20.48;43.08
28004;BME280;15330;51.234;6.754;2022-09-30T12:07:01;100614.59;;;18.77;44.20
28004;BME280;15330;51.234;6.754;2022-09-30T12:09:31;100616.50;;;18.39;44.08
28004;BME280;15330;51.234;6.754;2022-09-30T12:12:06;100608.06;;;18.22;46.04
28004;BME280;15330;51.234;6.754;2022-09-30T12:14:56;100617.19;;;17.96;45.89
28004;BME280;15330;51.234;6.754;2022-09-30T12:17:27;100595.16;;;18.49;44.71
28004;BME280;15330;51.234;6.754;2022-09-30T12:20:01;100606.78;;;18.87;44.12
28004;BME280;15330;51.234;6.754;2022-09-30T12:22:34;100598.50;;;19.00;43.28
28004;BME280;15330;51.234;6.754;2022-09-30T12:31:24;100588.97;;;18.98;43.30
28004;BME280;15330;51.234;6.754;2022-09-30T12:36:48;100592.72;;;19.15;43.06
28004;BME280;15330;51.234;6.754;2022-09-30T12:48:05;100579.06;;;17.46;46.59
28004;BME280;15330;51.234;6.754;2022-09-30T12:50:41;100577.00;;;17.48;45.87
28004;BME280;15330;51.234;6.754;2022-09-30T12:53:27;100573.94;;;17.32;46.33
28004;BME280;15330;51.234;6.754;2022-09-30T12:55:54;100571.78;;;17.53;46.35
28004;BME280;15330;51.234;6.754;2022-09-30T12:58:31;100572.56;;;17.74;45.75
28004;BME280;15330;51.234;6.754;2022-09-30T13:03:24;100566.28;;;17.15;46.18
28004;BME280;15330;51.234;6.754;2022-09-30T13:06:01;100564.28;;;16.78;49.28
28004;BME280;15330;51.234;6.754;2022-09-30T13:08:43;100564.03;;;17.12;48.53
28004;BME280;15330;51.234;6.754;2022-09-30T13:11:30;100567.88;;;17.43;48.32
28004;BME280;15330;51.234;6.754;2022-09-30T13:14:20;100555.56;;;17.53;46.89
28004;BME280;15330;51.234;6.754;2022-09-30T13:19:39;100547.25;;;17.93;45.21
28004;BME280;15330;51.234;6.754;2022-09-30T13:25:02;100549.16;;;17.86;46.10
28004;BME280;15330;51.234;6.754;2022-09-30T13:32:38;100539.84;;;17.24;47.02
28004;BME280;15330;51.234;6.754;2022-09-30T13:45:57;100535.47;;;17.30;46.28
28004;BME280;15330;51.234;6.754;2022-09-30T13:48:31;100532.69;;;17.49;45.54
28004;BME280;15330;51.234;6.754;2022-09-30T13:50:59;100541.88;;;18.43;45.14
28004;BME280;15330;51.234;6.754;2022-09-30T13:53:35;100537.97;;;18.14;45.40
28004;BME280;15330;51.234;6.754;2022-09-30T13:56:11;100532.81;;;18.30;44.14
28004;BME280;15330;51.234;6.754;2022-09-30T14:13:27;100515.97;;;18.28;44.80
28004;BME280;15330;51.234;6.754;2022-09-30T14:23:36;100505.44;;;17.89;45.50
28004;BME280;15330;51.234;6.754;2022-09-30T14:31:15;100495.63;;;17.94;45.81
28004;BME280;15330;51.234;6.754;2022-09-30T14:33:43;100495.91;;;18.11;44.87
28004;BME280;15330;51.234;6.754;2022-09-30T14:36:21;100494.78;;;17.63;45.03
28004;BME280;15330;51.234;6.754;2022-09-30T14:38:51;100490.03;;;17.45;45.22
28004;BME280;15330;51.234;6.754;2022-09-30T14:41:22;100497.72;;;17.48;45.82
28004;BME280;15330;51.234;6.754;2022-09-30T14:43:53;100502.34;;;17.85;45.81
28004;BME280;15330;51.234;6.754;2022-09-30T14:46:36;100484.22;;;17.86;45.92
28004;BME280;15330;51.234;6.754;2022-09-30T14:49:08;100491.41;;;17.67;46.10
28004;BME280;15330;51.234;6.754;2022-09-30T14:51:40;100487.53;;;17.88;46.62
28004;BME280;15330;51.234;6.754;2022-09-30T14:54:19;100487.28;;;17.65;46.38
28004;BME280;15330;51.234;6.754;2022-09-30T14:56:45;100482.53;;;17.53;45.93
28004;BME280;15330;51.234;6.754;2022-09-30T14:59:19;100485.00;;;17.93;45.36
28004;BME280;15330;51.234;6.754;2022-09-30T15:01:48;100480.09;;;17.39;46.73
28004;BME280;15330;51.234;6.754;2022-09-30T15:04:18;100488.31;;;17.19;46.66
28004;BME280;15330;51.234;6.754;2022-09-30T15:06:49;100479.47;;;17.43;46.02
28004;BME280;15330;51.234;6.754;2022-09-30T15:09:36;100483.16;;;17.04;46.67
28004;BME280;15330;51.234;6.754;2022-09-30T15:12:04;100484.59;;;17.07;47.17
28004;BME280;15330;51.234;6.754;2022-09-30T15:14:30;100479.69;;;16.84;47.31
28004;BME280;15330;51.234;6.754;2022-09-30T15:16:58;100474.50;;;16.76;47.76
28004;BME280;15330;51.234;6.754;2022-09-30T15:19:30;100484.94;;;16.66;47.60
28004;BME280;15330;51.234;6.754;2022-09-30T15:22:01;100478.03;;;16.76;47.74
28004;BME280;15330;51.234;6.754;2022-09-30T15:24:28;100470.34;;;16.80;47.77
28004;BME280;15330;51.234;6.754;2022-09-30T15:26:55;100466.41;;;16.76;47.63
28004;BME280;15330;51.234;6.754;2022-09-30T15:29:21;100469.91;;;16.83;47.43
28004;BME280;15330;51.234;6.754;2022-09-30T15:32:14;100471.56;;;16.91;47.50
28004;BME280;15330;51.234;6.754;2022-09-30T15:34:40;100477.00;;;16.77;47.63
28004;BME280;15330;51.234;6.754;2022-09-30T15:37:19;100482.59;;;16.82;48.08
28004;BME280;15330;51.234;6.754;2022-09-30T15:39:47;100484.50;;;16.69;47.81
28004;BME280;15330;51.234;6.754;2022-09-30T15:47:54;100467.69;;;16.67;47.86
28004;BME280;15330;51.234;6.754;2022-09-30T15:53:19;100470.81;;;16.37;48.26
28004;BME280;15330;51.234;6.754;2022-09-30T15:55:47;100470.59;;;16.45;48.38
28004;BME280;15330;51.234;6.754;2022-09-30T16:03:33;100482.00;;;16.41;48.85
28004;BME280;15330;51.234;6.754;2022-09-30T16:06:11;100482.03;;;16.28;49.70
28004;BME280;15330;51.234;6.754;2022-09-30T16:08:44;100476.63;;;16.28;49.12
28004;BME280;15330;51.234;6.754;2022-09-30T16:11:27;100481.41;;;16.26;49.69
28004;BME280;15330;51.234;6.754;2022-09-30T16:13:54;100480.56;;;16.05;50.11
28004;BME280;15330;51.234;6.754;2022-09-30T16:16:27;100482.25;;;16.06;50.03
28004;BME280;15330;51.234;6.754;2022-09-30T16:18:54;100477.66;;;16.00;50.41
28004;BME280;15330;51.234;6.754;2022-09-30T16:21:36;100491.56;;;15.91;50.24
28004;BME280;15330;51.234;6.754;2022-09-30T16:26:49;100497.59;;;15.93;50.60
28004;BME280;15330;51.234;6.754;2022-09-30T16:29:17;100502.16;;;15.92;50.77
28004;BME280;15330;51.234;6.754;2022-09-30T16:31:44;100495.72;;;15.93;51.02